sensor_id;sensor_type;location;lat;lon;timestamp;temperature;humidity
26952;DHT22;14507;52.418;13.398;2022-08-11T00:05:02;20.20;78.60
26952;DHT22;14507;52.418;13.398;2022-08-11T00:07:29;20.30;88.80
26952;DHT22;14507;52.418;13.398;2022-08-11T00:09:55;20.20;80.70
26952;DHT22;14507;52.418;13.398;2022-08-11T00:12:21;20.20;81.50
26952;DHT22;14507;52.418;13.398;2022-08-11T00:14:58;20.10;81.00
26952;DHT22;14507;52.418;13.398;2022-08-11T00:17:32;20.10;79.10
26952;DHT22;14507;52.418;13.398;2022-08-11T00:20:16;20.10;79.60
26952;DHT22;14507;52.418;13.398;2022-08-11T00:22:44;20.10;79.30
26952;DHT22;14507;52.418;13.398;2022-08-11T00:25:13;20.10;79.20
26952;DHT22;14507;52.418;13.398;2022-08-11T00:27:40;20.10;79.20
26952;DHT22;14507;52.418;13.398;2022-08-11T00:30:08;20.00;79.70
26952;DHT22;14507;52.418;13.398;2022-08-11T00:32:37;20.10;79.90
26952;DHT22;14507;52.418;13.398;2022-08-11T00:35:05;20.00;80.30
26952;DHT22;14507;52.418;13.398;2022-08-11T00:37:32;19.90;80.20
26952;DHT22;14507;52.418;13.398;2022-08-11T00:39:59;20.00;80.40
26952;DHT22;14507;52.418;13.398;2022-08-11T00:48:06;19.70;81.20
26952;DHT22;14507;52.418;13.398;2022-08-11T00:53:29;19.60;81.50
26952;DHT22;14507;52.418;13.398;2022-08-11T00:56:29;19.60;81.80
26952;DHT22;14507;52.418;13.398;2022-08-11T01:15:51;19.30;83.50
26952;DHT22;14507;52.418;13.398;2022-08-11T01:23:48;19.10;85.30
26952;DHT22;14507;52.418;13.398;2022-08-11T01:46:48;18.80;90.50
26952;DHT22;14507;52.418;13.398;2022-08-11T01:49:33;18.90;86.70
26952;DHT22;14507;52.418;13.398;2022-08-11T02:00:09;18.80;87.70
26952;DHT22;14507;52.418;13.398;2022-08-11T02:02:44;18.80;88.40
26952;DHT22;14507;52.418;13.398;2022-08-11T02:08:12;18.70;89.70
26952;DHT22;14507;52.418;13.398;2022-08-11T02:10:55;18.60;89.60
26952;DHT22;14507;52.418;13.398;2022-08-11T02:19:11;18.50;90.50
26952;DHT22;14507;52.418;13.398;2022-08-11T02:22:06;18.50;90.50
26952;DHT22;14507;52.418;13.398;2022-08-11T02:27:41;18.40;90.80
26952;DHT22;14507;52.418;13.398;2022-08-11T02:30:11;18.40;90.90
26952;DHT22;14507;52.418;13.398;2022-08-11T02:32:55;18.40;91.40
26952;DHT22;14507;52.418;13.398;2022-08-11T02:36:02;18.30;91.30
26952;DHT22;14507;52.418;13.398;2022-08-11T02:50:38;18.10;91.90
26952;DHT22;14507;52.418;13.398;2022-08-11T02:53:12;18.10;92.30
26952;DHT22;14507;52.418;13.398;2022-08-11T02:55:59;18.10;92.40
26952;DHT22;14507;52.418;13.398;2022-08-11T03:01:47;18.00;92.70
26952;DHT22;14507;52.418;13.398;2022-08-11T03:04:24;18.00;92.90
26952;DHT22;14507;52.418;13.398;2022-08-11T03:07:04;18.00;93.20
26952;DHT22;14507;52.418;13.398;2022-08-11T03:09:54;17.90;93.30
26952;DHT22;14507;52.418;13.398;2022-08-11T03:12:35;17.90;93.80
26952;DHT22;14507;52.418;13.398;2022-08-11T03:15:28;17.90;94.20
26952;DHT22;14507;52.418;13.398;2022-08-11T03:18:40;17.80;94.00
26952;DHT22;14507;52.418;13.398;2022-08-11T03:21:20;17.80;94.00
26952;DHT22;14507;52.418;13.398;2022-08-11T03:23:58;17.80;94.10
26952;DHT22;14507;52.418;13.398;2022-08-11T03:26:35;17.80;94.20
26952;DHT22;14507;52.418;13.398;2022-08-11T03:29:36;17.80;94.20
26952;DHT22;14507;52.418;13.398;2022-08-11T03:32:25;17.70;94.30
26952;DHT22;14507;52.418;13.398;2022-08-11T03:34:54;17.70;94.70
26952;DHT22;14507;52.418;13.398;2022-08-11T03:43:23;17.50;95.40
26952;DHT22;14507;52.418;13.398;2022-08-11T03:46:11;17.50;95.50
26952;DHT22;14507;52.418;13.398;2022-08-11T03:54:46;17.50;96.00
26952;DHT22;14507;52.418;13.398;2022-08-11T04:11:15;17.50;96.00
26952;DHT22;14507;52.418;13.398;2022-08-11T04:16:40;17.50;96.50
26952;DHT22;14507;52.418;13.398;2022-08-11T04:35:28;17.60;96.60
26952;DHT22;14507;52.418;13.398;2022-08-11T04:40:55;17.90;96.30
26952;DHT22;14507;52.418;13.398;2022-08-11T04:46:49;18.60;95.50
26952;DHT22;14507;52.418;13.398;2022-08-11T04:49:46;19.00;94.70
26952;DHT22;14507;52.418;13.398;2022-08-11T04:52:51;19.40;93.70
26952;DHT22;14507;52.418;13.398;2022-08-11T04:56:07;19.70;92.50
26952;DHT22;14507;52.418;13.398;2022-08-11T04:59:19;20.10;92.10
26952;DHT22;14507;52.418;13.398;2022-08-11T05:05:22;20.70;90.50
26952;DHT22;14507;52.418;13.398;2022-08-11T05:08:13;20.90;87.70
26952;DHT22;14507;52.418;13.398;2022-08-11T05:11:06;21.10;87.30
26952;DHT22;14507;52.418;13.398;2022-08-11T05:13:45;21.40;85.40
26952;DHT22;14507;52.418;13.398;2022-08-11T05:16:34;21.80;84.20
26952;DHT22;14507;52.418;13.398;2022-08-11T05:19:23;22.10;81.80
26952;DHT22;14507;52.418;13.398;2022-08-11T05:22:11;22.10;81.60
26952;DHT22;14507;52.418;13.398;2022-08-11T05:28:09;22.60;79.20
26952;DHT22;14507;52.418;13.398;2022-08-11T05:30:57;22.80;78.40
26952;DHT22;14507;52.418;13.398;2022-08-11T05:34:01;23.00;77.70
26952;DHT22;14507;52.418;13.398;2022-08-11T05:36:52;23.20;76.90
26952;DHT22;14507;52.418;13.398;2022-08-11T05:39:26;23.60;76.40
26952;DHT22;14507;52.418;13.398;2022-08-11T05:42:11;23.90;76.00
26952;DHT22;14507;52.418;13.398;2022-08-11T05:45:03;23.90;74.30
26952;DHT22;14507;52.418;13.398;2022-08-11T05:47:48;24.10;73.80
26952;DHT22;14507;52.418;13.398;2022-08-11T05:50:33;24.30;74.20
26952;DHT22;14507;52.418;13.398;2022-08-11T05:53:18;24.70;71.90
26952;DHT22;14507;52.418;13.398;2022-08-11T05:56:07;24.50;71.60
26952;DHT22;14507;52.418;13.398;2022-08-11T05:58:46;24.80;71.70
26952;DHT22;14507;52.418;13.398;2022-08-11T06:01:26;24.90;70.50
26952;DHT22;14507;52.418;13.398;2022-08-11T06:03:54;24.90;70.10
26952;DHT22;14507;52.418;13.398;2022-08-11T06:06:57;24.90;72.50
26952;DHT22;14507;52.418;13.398;2022-08-11T06:11:51;25.20;69.50
26952;DHT22;14507;52.418;13.398;2022-08-11T06:14:19;25.40;69.30
26952;DHT22;14507;52.418;13.398;2022-08-11T06:16:47;25.80;68.60
26952;DHT22;14507;52.418;13.398;2022-08-11T06:19:13;26.20;67.50
26952;DHT22;14507;52.418;13.398;2022-08-11T06:21:44;26.70;66.10
26952;DHT22;14507;52.418;13.398;2022-08-11T06:24:12;27.10;66.40
26952;DHT22;14507;52.418;13.398;2022-08-11T06:26:48;27.50;64.10
26952;DHT22;14507;52.418;13.398;2022-08-11T06:29:14;27.70;65.00
26952;DHT22;14507;52.418;13.398;2022-08-11T06:31:51;27.90;64.20
26952;DHT22;14507;52.418;13.398;2022-08-11T06:42:55;29.40;61.50
26952;DHT22;14507;52.418;13.398;2022-08-11T06:45:52;29.70;60.40
26952;DHT22;14507;52.418;13.398;2022-08-11T06:48:22;29.80;60.20
26952;DHT22;14507;52.418;13.398;2022-08-11T06:50:59;30.00;61.50
26952;DHT22;14507;52.418;13.398;2022-08-11T06:53:46;30.30;60.20
26952;DHT22;14507;52.418;13.398;2022-08-11T06:56:14;30.60;58.40
26952;DHT22;14507;52.418;13.398;2022-08-11T06:59:00;31.00;58.20
26952;DHT22;14507;52.418;13.398;2022-08-11T07:02:08;31.40;56.60
26952;DHT22;14507;52.418;13.398;2022-08-11T07:04:58;31.00;56.60
26952;DHT22;14507;52.418;13.398;2022-08-11T07:13:53;31.30;55.80
26952;DHT22;14507;52.418;13.398;2022-08-11T07:16:40;31.50;56.40
26952;DHT22;14507;52.418;13.398;2022-08-11T07:19:08;31.60;55.10
26952;DHT22;14507;52.418;13.398;2022-08-11T07:21:55;31.30;55.00
26952;DHT22;14507;52.418;13.398;2022-08-11T07:24:43;31.30;56.80
26952;DHT22;14507;52.418;13.398;2022-08-11T07:27:42;31.70;56.60
26952;DHT22;14507;52.418;13.398;2022-08-11T07:30:27;32.10;54.50
26952;DHT22;14507;52.418;13.398;2022-08-11T07:32:56;33.00;53.70
26952;DHT22;14507;52.418;13.398;2022-08-11T07:35:30;32.60;53.80
26952;DHT22;14507;52.418;13.398;2022-08-11T07:38:01;32.90;53.40
26952;DHT22;14507;52.418;13.398;2022-08-11T07:40:29;33.20;54.40
26952;DHT22;14507;52.418;13.398;2022-08-11T07:42:56;33.50;53.50
26952;DHT22;14507;52.418;13.398;2022-08-11T07:45:24;33.80;54.60
26952;DHT22;14507;52.418;13.398;2022-08-11T07:48:09;34.30;52.00
26952;DHT22;14507;52.418;13.398;2022-08-11T07:50:55;34.60;51.20
26952;DHT22;14507;52.418;13.398;2022-08-11T07:53:39;34.60;51.60
26952;DHT22;14507;52.418;13.398;2022-08-11T07:56:05;34.90;52.80
26952;DHT22;14507;52.418;13.398;2022-08-11T07:58:34;35.20;52.10
26952;DHT22;14507;52.418;13.398;2022-08-11T08:01:21;35.30;51.60
26952;DHT22;14507;52.418;13.398;2022-08-11T08:04:08;35.50;51.10
26952;DHT22;14507;52.418;13.398;2022-08-11T08:06:54;35.70;50.40
26952;DHT22;14507;52.418;13.398;2022-08-11T08:09:39;35.70;48.90
26952;DHT22;14507;52.418;13.398;2022-08-11T08:12:28;35.50;50.00
26952;DHT22;14507;52.418;13.398;2022-08-11T08:15:14;35.50;49.70
26952;DHT22;14507;52.418;13.398;2022-08-11T08:18:01;35.60;50.30
26952;DHT22;14507;52.418;13.398;2022-08-11T08:20:31;35.80;48.60
26952;DHT22;14507;52.418;13.398;2022-08-11T08:23:01;35.90;48.70
26952;DHT22;14507;52.418;13.398;2022-08-11T08:25:30;36.10;48.30
26952;DHT22;14507;52.418;13.398;2022-08-11T08:27:57;35.40;49.00
26952;DHT22;14507;52.418;13.398;2022-08-11T08:30:27;35.20;49.10
26952;DHT22;14507;52.418;13.398;2022-08-11T08:33:20;35.20;48.20
26952;DHT22;14507;52.418;13.398;2022-08-11T08:35:55;35.30;48.10
26952;DHT22;14507;52.418;13.398;2022-08-11T08:38:40;35.00;48.40
26952;DHT22;14507;52.418;13.398;2022-08-11T08:41:07;34.80;48.50
26952;DHT22;14507;52.418;13.398;2022-08-11T08:43:35;34.70;50.70
26952;DHT22;14507;52.418;13.398;2022-08-11T08:46:04;34.30;48.00
26952;DHT22;14507;52.418;13.398;2022-08-11T08:48:31;35.10;48.60
26952;DHT22;14507;52.418;13.398;2022-08-11T08:51:00;35.40;50.00
26952;DHT22;14507;52.418;13.398;2022-08-11T08:53:49;35.60;48.90
26952;DHT22;14507;52.418;13.398;2022-08-11T08:56:16;35.80;48.80
26952;DHT22;14507;52.418;13.398;2022-08-11T08:58:47;36.00;49.00
26952;DHT22;14507;52.418;13.398;2022-08-11T09:01:14;36.10;47.70
26952;DHT22;14507;52.418;13.398;2022-08-11T09:03:41;35.90;47.70
26952;DHT22;14507;52.418;13.398;2022-08-11T09:06:08;35.70;48.70
26952;DHT22;14507;52.418;13.398;2022-08-11T09:08:35;35.70;47.40
26952;DHT22;14507;52.418;13.398;2022-08-11T09:11:03;35.60;48.00
26952;DHT22;14507;52.418;13.398;2022-08-11T09:13:48;35.70;49.80
26952;DHT22;14507;52.418;13.398;2022-08-11T09:16:15;35.40;46.70
26952;DHT22;14507;52.418;13.398;2022-08-11T09:18:41;34.60;47.30
26952;DHT22;14507;52.418;13.398;2022-08-11T09:21:13;34.50;49.20
26952;DHT22;14507;52.418;13.398;2022-08-11T09:23:40;34.40;47.50
26952;DHT22;14507;52.418;13.398;2022-08-11T09:26:25;34.00;47.90
26952;DHT22;14507;52.418;13.398;2022-08-11T09:29:10;33.80;48.40
26952;DHT22;14507;52.418;13.398;2022-08-11T09:31:36;33.80;49.80
26952;DHT22;14507;52.418;13.398;2022-08-11T09:34:03;33.60;48.20
26952;DHT22;14507;52.418;13.398;2022-08-11T09:36:29;33.20;48.80
26952;DHT22;14507;52.418;13.398;2022-08-11T09:39:14;33.10;49.60
26952;DHT22;14507;52.418;13.398;2022-08-11T09:42:01;33.30;50.10
26952;DHT22;14507;52.418;13.398;2022-08-11T09:44:29;33.50;51.10
26952;DHT22;14507;52.418;13.398;2022-08-11T09:49:45;33.60;48.60
26952;DHT22;14507;52.418;13.398;2022-08-11T09:52:14;33.70;49.80
26952;DHT22;14507;52.418;13.398;2022-08-11T09:54:41;33.80;49.00
26952;DHT22;14507;52.418;13.398;2022-08-11T09:57:07;33.90;49.50
26952;DHT22;14507;52.418;13.398;2022-08-11T09:59:52;34.00;47.60
26952;DHT22;14507;52.418;13.398;2022-08-11T10:02:26;33.90;47.70
26952;DHT22;14507;52.418;13.398;2022-08-11T10:04:55;33.90;50.50
26952;DHT22;14507;52.418;13.398;2022-08-11T10:07:44;34.00;48.20
26952;DHT22;14507;52.418;13.398;2022-08-11T10:10:16;33.80;47.20
26952;DHT22;14507;52.418;13.398;2022-08-11T10:12:52;33.20;48.90
26952;DHT22;14507;52.418;13.398;2022-08-11T10:15:20;32.90;48.90
26952;DHT22;14507;52.418;13.398;2022-08-11T10:18:36;32.70;50.50
26952;DHT22;14507;52.418;13.398;2022-08-11T10:21:24;32.80;48.40
26952;DHT22;14507;52.418;13.398;2022-08-11T10:23:53;32.90;48.90
26952;DHT22;14507;52.418;13.398;2022-08-11T10:26:38;33.00;49.10
26952;DHT22;14507;52.418;13.398;2022-08-11T10:29:21;33.10;47.60
26952;DHT22;14507;52.418;13.398;2022-08-11T10:32:07;33.00;48.40
26952;DHT22;14507;52.418;13.398;2022-08-11T10:34:52;33.20;48.10
26952;DHT22;14507;52.418;13.398;2022-08-11T10:37:21;33.40;48.20
26952;DHT22;14507;52.418;13.398;2022-08-11T10:39:48;33.60;47.20
26952;DHT22;14507;52.418;13.398;2022-08-11T10:42:14;33.80;47.50
26952;DHT22;14507;52.418;13.398;2022-08-11T10:45:18;33.80;47.30
26952;DHT22;14507;52.418;13.398;2022-08-11T10:48:11;33.40;46.80
26952;DHT22;14507;52.418;13.398;2022-08-11T10:50:37;33.00;47.00
26952;DHT22;14507;52.418;13.398;2022-08-11T10:53:22;32.50;47.20
26952;DHT22;14507;52.418;13.398;2022-08-11T10:56:07;32.20;49.00
26952;DHT22;14507;52.418;13.398;2022-08-11T10:58:52;32.00;48.80
26952;DHT22;14507;52.418;13.398;2022-08-11T11:01:30;31.70;47.80
26952;DHT22;14507;52.418;13.398;2022-08-11T11:04:02;31.40;48.20
26952;DHT22;14507;52.418;13.398;2022-08-11T11:09:32;31.50;49.70
26952;DHT22;14507;52.418;13.398;2022-08-11T11:14:56;31.90;48.30
26952;DHT22;14507;52.418;13.398;2022-08-11T11:17:53;31.80;48.40
26952;DHT22;14507;52.418;13.398;2022-08-11T11:20:24;31.40;48.80
26952;DHT22;14507;52.418;13.398;2022-08-11T11:22:55;31.20;48.60
26952;DHT22;14507;52.418;13.398;2022-08-11T11:25:34;30.90;48.30
26952;DHT22;14507;52.418;13.398;2022-08-11T11:31:28;30.70;48.90
26952;DHT22;14507;52.418;13.398;2022-08-11T11:34:22;30.70;49.20
26952;DHT22;14507;52.418;13.398;2022-08-11T11:36:56;30.90;49.50
26952;DHT22;14507;52.418;13.398;2022-08-11T11:39:24;31.10;49.60
26952;DHT22;14507;52.418;13.398;2022-08-11T11:41:54;31.30;50.30
26952;DHT22;14507;52.418;13.398;2022-08-11T11:44:21;31.50;50.70
26952;DHT22;14507;52.418;13.398;2022-08-11T11:46:48;31.70;51.00
26952;DHT22;14507;52.418;13.398;2022-08-11T11:49:17;31.90;48.40
26952;DHT22;14507;52.418;13.398;2022-08-11T11:51:45;32.00;48.90
26952;DHT22;14507;52.418;13.398;2022-08-11T11:54:16;31.90;48.60
26952;DHT22;14507;52.418;13.398;2022-08-11T11:56:42;31.60;47.80
26952;DHT22;14507;52.418;13.398;2022-08-11T11:59:09;31.30;49.00
26952;DHT22;14507;52.418;13.398;2022-08-11T12:01:55;31.30;48.90
26952;DHT22;14507;52.418;13.398;2022-08-11T12:04:22;31.20;48.30
26952;DHT22;14507;52.418;13.398;2022-08-11T12:06:48;30.90;49.30
26952;DHT22;14507;52.418;13.398;2022-08-11T12:09:17;30.80;48.90
26952;DHT22;14507;52.418;13.398;2022-08-11T12:11:47;30.80;50.20
26952;DHT22;14507;52.418;13.398;2022-08-11T12:14:32;30.80;48.90
26952;DHT22;14507;52.418;13.398;2022-08-11T12:16:59;30.70;49.20
26952;DHT22;14507;52.418;13.398;2022-08-11T12:19:26;30.60;49.60
26952;DHT22;14507;52.418;13.398;2022-08-11T12:21:56;30.60;50.90
26952;DHT22;14507;52.418;13.398;2022-08-11T12:24:41;30.60;51.40
26952;DHT22;14507;52.418;13.398;2022-08-11T12:27:26;30.60;49.30
26952;DHT22;14507;52.418;13.398;2022-08-11T12:30:00;30.60;51.10
26952;DHT22;14507;52.418;13.398;2022-08-11T12:32:35;30.60;49.00
26952;DHT22;14507;52.418;13.398;2022-08-11T12:35:01;30.60;49.80
26952;DHT22;14507;52.418;13.398;2022-08-11T12:37:40;30.70;49.30
26952;DHT22;14507;52.418;13.398;2022-08-11T12:40:12;30.70;49.20
26952;DHT22;14507;52.418;13.398;2022-08-11T12:43:02;30.90;50.80
26952;DHT22;14507;52.418;13.398;2022-08-11T12:45:48;30.90;50.40
26952;DHT22;14507;52.418;13.398;2022-08-11T12:48:19;31.00;49.70
26952;DHT22;14507;52.418;13.398;2022-08-11T12:51:05;31.10;47.80
26952;DHT22;14507;52.418;13.398;2022-08-11T12:54:01;31.10;47.70
26952;DHT22;14507;52.418;13.398;2022-08-11T12:56:37;31.00;48.10
26952;DHT22;14507;52.418;13.398;2022-08-11T12:59:23;30.90;47.30
26952;DHT22;14507;52.418;13.398;2022-08-11T13:02:19;30.90;48.20
26952;DHT22;14507;52.418;13.398;2022-08-11T13:05:06;30.90;47.70
26952;DHT22;14507;52.418;13.398;2022-08-11T13:07:33;30.80;47.40
26952;DHT22;14507;52.418;13.398;2022-08-11T13:10:04;30.70;49.60
26952;DHT22;14507;52.418;13.398;2022-08-11T13:12:32;30.80;50.20
26952;DHT22;14507;52.418;13.398;2022-08-11T13:17:40;31.10;47.80
26952;DHT22;14507;52.418;13.398;2022-08-11T13:20:09;31.20;47.70
26952;DHT22;14507;52.418;13.398;2022-08-11T13:22:35;31.30;47.10
26952;DHT22;14507;52.418;13.398;2022-08-11T13:25:03;31.10;47.50
26952;DHT22;14507;52.418;13.398;2022-08-11T13:27:29;30.90;47.30
26952;DHT22;14507;52.418;13.398;2022-08-11T13:29:55;30.90;47.10
26952;DHT22;14507;52.418;13.398;2022-08-11T13:32:43;30.80;47.50
26952;DHT22;14507;52.418;13.398;2022-08-11T13:35:14;30.80;46.70
26952;DHT22;14507;52.418;13.398;2022-08-11T13:37:43;30.60;48.00
26952;DHT22;14507;52.418;13.398;2022-08-11T13:40:10;30.60;47.60
26952;DHT22;14507;52.418;13.398;2022-08-11T13:42:37;30.60;46.60
26952;DHT22;14507;52.418;13.398;2022-08-11T13:45:05;30.50;46.80
26952;DHT22;14507;52.418;13.398;2022-08-11T13:47:33;30.40;47.00
26952;DHT22;14507;52.418;13.398;2022-08-11T13:49:59;30.30;46.90
26952;DHT22;14507;52.418;13.398;2022-08-11T13:52:26;30.30;46.60
26952;DHT22;14507;52.418;13.398;2022-08-11T13:54:56;30.30;47.40
26952;DHT22;14507;52.418;13.398;2022-08-11T13:57:22;30.30;47.20
26952;DHT22;14507;52.418;13.398;2022-08-11T13:59:52;30.30;47.30
26952;DHT22;14507;52.418;13.398;2022-08-11T14:02:35;30.20;47.20
26952;DHT22;14507;52.418;13.398;2022-08-11T14:05:07;30.20;47.80
26952;DHT22;14507;52.418;13.398;2022-08-11T14:07:38;30.20;48.00
26952;DHT22;14507;52.418;13.398;2022-08-11T14:10:05;30.30;48.20
26952;DHT22;14507;52.418;13.398;2022-08-11T14:12:33;30.30;46.30
26952;DHT22;14507;52.418;13.398;2022-08-11T14:15:24;30.30;46.10
26952;DHT22;14507;52.418;13.398;2022-08-11T14:17:58;30.30;48.20
26952;DHT22;14507;52.418;13.398;2022-08-11T14:20:28;30.30;47.50
26952;DHT22;14507;52.418;13.398;2022-08-11T14:23:15;30.30;45.80
26952;DHT22;14507;52.418;13.398;2022-08-11T14:25:42;30.30;45.50
26952;DHT22;14507;52.418;13.398;2022-08-11T14:28:30;30.30;45.70
26952;DHT22;14507;52.418;13.398;2022-08-11T14:30:57;30.20;46.40
26952;DHT22;14507;52.418;13.398;2022-08-11T14:33:23;30.30;46.20
26952;DHT22;14507;52.418;13.398;2022-08-11T14:35:49;30.30;45.80
26952;DHT22;14507;52.418;13.398;2022-08-11T14:38:16;30.20;45.20
26952;DHT22;14507;52.418;13.398;2022-08-11T14:40:43;30.10;45.50
26952;DHT22;14507;52.418;13.398;2022-08-11T14:43:27;30.10;45.30
26952;DHT22;14507;52.418;13.398;2022-08-11T14:46:11;30.00;45.50
26952;DHT22;14507;52.418;13.398;2022-08-11T14:48:56;30.00;45.90
26952;DHT22;14507;52.418;13.398;2022-08-11T14:51:22;30.00;45.10
26952;DHT22;14507;52.418;13.398;2022-08-11T14:53:48;30.00;46.20
26952;DHT22;14507;52.418;13.398;2022-08-11T14:56:34;30.10;45.90
26952;DHT22;14507;52.418;13.398;2022-08-11T14:59:01;30.20;45.80
26952;DHT22;14507;52.418;13.398;2022-08-11T15:01:27;30.20;45.60
26952;DHT22;14507;52.418;13.398;2022-08-11T15:04:12;30.10;45.50
26952;DHT22;14507;52.418;13.398;2022-08-11T15:06:37;30.10;46.10
26952;DHT22;14507;52.418;13.398;2022-08-11T15:09:03;30.10;45.40
26952;DHT22;14507;52.418;13.398;2022-08-11T15:11:31;29.90;45.60
26952;DHT22;14507;52.418;13.398;2022-08-11T15:14:16;29.80;45.30
26952;DHT22;14507;52.418;13.398;2022-08-11T15:17:05;29.70;45.70
26952;DHT22;14507;52.418;13.398;2022-08-11T15:19:34;29.60;45.50
26952;DHT22;14507;52.418;13.398;2022-08-11T15:22:00;29.60;45.30
26952;DHT22;14507;52.418;13.398;2022-08-11T15:24:45;29.60;45.50
26952;DHT22;14507;52.418;13.398;2022-08-11T15:27:18;29.60;45.30
26952;DHT22;14507;52.418;13.398;2022-08-11T15:30:04;29.60;45.00
26952;DHT22;14507;52.418;13.398;2022-08-11T15:32:50;29.60;45.40
26952;DHT22;14507;52.418;13.398;2022-08-11T15:35:36;29.60;45.40
26952;DHT22;14507;52.418;13.398;2022-08-11T15:38:22;29.60;45.30
26952;DHT22;14507;52.418;13.398;2022-08-11T15:40:48;29.60;45.50
26952;DHT22;14507;52.418;13.398;2022-08-11T15:43:41;29.60;44.70
26952;DHT22;14507;52.418;13.398;2022-08-11T15:46:46;29.60;44.80
26952;DHT22;14507;52.418;13.398;2022-08-11T15:49:23;29.50;44.20
26952;DHT22;14507;52.418;13.398;2022-08-11T15:51:55;29.50;45.40
26952;DHT22;14507;52.418;13.398;2022-08-11T15:54:24;29.50;44.40
26952;DHT22;14507;52.418;13.398;2022-08-11T15:56:52;29.50;44.90
26952;DHT22;14507;52.418;13.398;2022-08-11T15:59:20;29.50;44.50
26952;DHT22;14507;52.418;13.398;2022-08-11T16:02:08;29.50;44.20
26952;DHT22;14507;52.418;13.398;2022-08-11T16:04:43;29.50;44.20
26952;DHT22;14507;52.418;13.398;2022-08-11T16:07:12;29.60;44.60
26952;DHT22;14507;52.418;13.398;2022-08-11T16:12:14;29.60;44.10
26952;DHT22;14507;52.418;13.398;2022-08-11T16:14:43;29.60;43.70
26952;DHT22;14507;52.418;13.398;2022-08-11T16:17:34;29.50;43.50
26952;DHT22;14507;52.418;13.398;2022-08-11T16:20:03;29.50;43.00
26952;DHT22;14507;52.418;13.398;2022-08-11T16:22:32;29.40;42.80
26952;DHT22;14507;52.418;13.398;2022-08-11T16:25:05;29.40;42.70
26952;DHT22;14507;52.418;13.398;2022-08-11T16:27:36;29.30;43.40
26952;DHT22;14507;52.418;13.398;2022-08-11T16:30:04;29.30;42.90
26952;DHT22;14507;52.418;13.398;2022-08-11T16:32:34;29.30;42.90
26952;DHT22;14507;52.418;13.398;2022-08-11T16:35:06;29.40;42.50
26952;DHT22;14507;52.418;13.398;2022-08-11T16:37:53;29.40;42.40
26952;DHT22;14507;52.418;13.398;2022-08-11T16:40:38;29.40;42.10
26952;DHT22;14507;52.418;13.398;2022-08-11T16:43:07;29.30;42.10
26952;DHT22;14507;52.418;13.398;2022-08-11T16:45:53;29.20;42.40
26952;DHT22;14507;52.418;13.398;2022-08-11T16:48:40;29.20;43.00
26952;DHT22;14507;52.418;13.398;2022-08-11T16:51:10;29.20;43.00
26952;DHT22;14507;52.418;13.398;2022-08-11T16:53:36;29.20;42.80
26952;DHT22;14507;52.418;13.398;2022-08-11T16:56:05;29.20;42.70
26952;DHT22;14507;52.418;13.398;2022-08-11T16:58:34;29.20;42.40
26952;DHT22;14507;52.418;13.398;2022-08-11T17:01:21;29.50;42.10
26952;DHT22;14507;52.418;13.398;2022-08-11T17:03:56;29.10;41.90
26952;DHT22;14507;52.418;13.398;2022-08-11T17:06:44;29.00;42.50
26952;DHT22;14507;52.418;13.398;2022-08-11T17:09:33;28.90;42.40
26952;DHT22;14507;52.418;13.398;2022-08-11T17:12:21;28.90;42.60
26952;DHT22;14507;52.418;13.398;2022-08-11T17:15:11;28.90;42.70
26952;DHT22;14507;52.418;13.398;2022-08-11T17:17:59;28.90;42.30
26952;DHT22;14507;52.418;13.398;2022-08-11T17:20:28;28.80;42.60
26952;DHT22;14507;52.418;13.398;2022-08-11T17:22:55;28.80;42.60
26952;DHT22;14507;52.418;13.398;2022-08-11T17:25:41;28.80;43.00
26952;DHT22;14507;52.418;13.398;2022-08-11T17:28:09;28.70;42.90
26952;DHT22;14507;52.418;13.398;2022-08-11T17:30:38;28.60;42.80
26952;DHT22;14507;52.418;13.398;2022-08-11T17:33:23;28.60;42.80
26952;DHT22;14507;52.418;13.398;2022-08-11T17:36:08;28.50;42.90
26952;DHT22;14507;52.418;13.398;2022-08-11T17:38:35;28.50;43.00
26952;DHT22;14507;52.418;13.398;2022-08-11T17:41:03;28.40;43.30
26952;DHT22;14507;52.418;13.398;2022-08-11T17:43:49;28.40;43.20
26952;DHT22;14507;52.418;13.398;2022-08-11T17:46:34;28.30;43.50
26952;DHT22;14507;52.418;13.398;2022-08-11T17:49:20;28.30;43.70
26952;DHT22;14507;52.418;13.398;2022-08-11T17:51:47;28.20;43.80
26952;DHT22;14507;52.418;13.398;2022-08-11T17:54:34;28.20;43.90
26952;DHT22;14507;52.418;13.398;2022-08-11T17:57:19;28.10;44.20
26952;DHT22;14507;52.418;13.398;2022-08-11T18:00:05;28.10;44.40
26952;DHT22;14507;52.418;13.398;2022-08-11T18:02:42;28.00;44.60
26952;DHT22;14507;52.418;13.398;2022-08-11T18:05:32;27.90;44.70
26952;DHT22;14507;52.418;13.398;2022-08-11T18:08:02;27.80;44.90
26952;DHT22;14507;52.418;13.398;2022-08-11T18:10:47;27.80;45.20
26952;DHT22;14507;52.418;13.398;2022-08-11T18:13:35;27.60;45.20
26952;DHT22;14507;52.418;13.398;2022-08-11T18:16:20;27.60;45.20
26952;DHT22;14507;52.418;13.398;2022-08-11T18:19:05;27.60;45.40
26952;DHT22;14507;52.418;13.398;2022-08-11T18:21:52;27.50;45.50
26952;DHT22;14507;52.418;13.398;2022-08-11T18:24:42;27.40;45.60
26952;DHT22;14507;52.418;13.398;2022-08-11T18:27:30;27.30;45.80
26952;DHT22;14507;52.418;13.398;2022-08-11T18:30:16;27.30;45.90
26952;DHT22;14507;52.418;13.398;2022-08-11T18:33:02;27.20;46.30
26952;DHT22;14507;52.418;13.398;2022-08-11T18:35:53;27.10;46.50
26952;DHT22;14507;52.418;13.398;2022-08-11T18:38:45;27.00;46.70
26952;DHT22;14507;52.418;13.398;2022-08-11T18:41:34;26.90;47.00
26952;DHT22;14507;52.418;13.398;2022-08-11T18:44:20;26.90;47.10
26952;DHT22;14507;52.418;13.398;2022-08-11T18:47:09;26.80;47.10
26952;DHT22;14507;52.418;13.398;2022-08-11T18:49:54;26.70;47.30
26952;DHT22;14507;52.418;13.398;2022-08-11T18:52:40;26.60;47.60
26952;DHT22;14507;52.418;13.398;2022-08-11T18:55:25;26.60;47.80
26952;DHT22;14507;52.418;13.398;2022-08-11T18:58:14;26.40;48.50
26952;DHT22;14507;52.418;13.398;2022-08-11T19:01:00;26.40;48.20
26952;DHT22;14507;52.418;13.398;2022-08-11T19:03:47;26.30;48.40
26952;DHT22;14507;52.418;13.398;2022-08-11T19:06:33;26.20;48.90
26952;DHT22;14507;52.418;13.398;2022-08-11T19:09:19;26.10;49.10
26952;DHT22;14507;52.418;13.398;2022-08-11T19:12:05;26.00;49.60
26952;DHT22;14507;52.418;13.398;2022-08-11T19:14:50;25.90;50.30
26952;DHT22;14507;52.418;13.398;2022-08-11T19:17:37;25.80;50.20
26952;DHT22;14507;52.418;13.398;2022-08-11T19:20:25;25.80;49.90
26952;DHT22;14507;52.418;13.398;2022-08-11T19:23:13;25.70;51.60